sensor_id;sensor_type;location;lat;lon;timestamp;temperature;humidity
65598;SHT31;52267;51.984;20.956;2024-02-21T00:00:55;4.82;85.98
65598;SHT31;52267;51.984;20.956;2024-02-21T00:03:42;4.81;85.99
65598;SHT31;52267;51.984;20.956;2024-02-21T00:06:09;4.80;86.05
65598;SHT31;52267;51.984;20.956;2024-02-21T00:08:36;4.82;86.05
65598;SHT31;52267;51.984;20.956;2024-02-21T00:11:03;4.84;86.11
65598;SHT31;52267;51.984;20.956;2024-02-21T00:13:30;4.86;86.09
65598;SHT31;52267;51.984;20.956;2024-02-21T00:16:00;4.89;86.07
65598;SHT31;52267;51.984;20.956;2024-02-21T00:18:28;4.93;86.07
65598;SHT31;52267;51.984;20.956;2024-02-21T00:20:55;4.96;86.06
65598;SHT31;52267;51.984;20.956;2024-02-21T00:23:22;4.98;86.13
65598;SHT31;52267;51.984;20.956;2024-02-21T00:25:49;5.01;86.13
65598;SHT31;52267;51.984;20.956;2024-02-21T00:28:16;5.03;86.01
65598;SHT31;52267;51.984;20.956;2024-02-21T00:30:43;5.03;86.02
65598;SHT31;52267;51.984;20.956;2024-02-21T00:33:10;5.05;86.05
65598;SHT31;52267;51.984;20.956;2024-02-21T00:35:37;5.05;86.15
65598;SHT31;52267;51.984;20.956;2024-02-21T00:38:04;5.07;86.11
65598;SHT31;52267;51.984;20.956;2024-02-21T00:40:32;5.09;86.06
65598;SHT31;52267;51.984;20.956;2024-02-21T00:42:58;5.09;86.07
65598;SHT31;52267;51.984;20.956;2024-02-21T00:45:25;5.11;86.14
65598;SHT31;52267;51.984;20.956;2024-02-21T00:47:53;5.13;86.11
65598;SHT31;52267;51.984;20.956;2024-02-21T00:50:19;5.14;86.10
65598;SHT31;52267;51.984;20.956;2024-02-21T00:52:47;5.14;86.19
65598;SHT31;52267;51.984;20.956;2024-02-21T00:55:15;5.15;86.18
65598;SHT31;52267;51.984;20.956;2024-02-21T00:57:42;5.18;86.15
65598;SHT31;52267;51.984;20.956;2024-02-21T01:00:09;5.19;86.20
65598;SHT31;52267;51.984;20.956;2024-02-21T01:02:36;5.19;86.26
65598;SHT31;52267;51.984;20.956;2024-02-21T01:05:04;5.20;86.22
65598;SHT31;52267;51.984;20.956;2024-02-21T01:07:31;5.19;86.28
65598;SHT31;52267;51.984;20.956;2024-02-21T01:09:58;5.21;86.21
65598;SHT31;52267;51.984;20.956;2024-02-21T01:12:25;5.21;86.26
65598;SHT31;52267;51.984;20.956;2024-02-21T01:14:52;5.19;86.32
65598;SHT31;52267;51.984;20.956;2024-02-21T01:17:19;5.18;86.38
65598;SHT31;52267;51.984;20.956;2024-02-21T01:19:46;5.19;86.37
65598;SHT31;52267;51.984;20.956;2024-02-21T01:22:13;5.19;86.38
65598;SHT31;52267;51.984;20.956;2024-02-21T01:24:42;5.18;86.42
65598;SHT31;52267;51.984;20.956;2024-02-21T01:27:09;5.18;86.46
65598;SHT31;52267;51.984;20.956;2024-02-21T01:29:36;5.19;86.50
65598;SHT31;52267;51.984;20.956;2024-02-21T01:32:03;5.20;86.53
65598;SHT31;52267;51.984;20.956;2024-02-21T01:34:31;5.22;86.56
65598;SHT31;52267;51.984;20.956;2024-02-21T01:36:58;5.23;86.56
65598;SHT31;52267;51.984;20.956;2024-02-21T01:39:26;5.24;86.63
65598;SHT31;52267;51.984;20.956;2024-02-21T01:41:53;5.26;86.60
65598;SHT31;52267;51.984;20.956;2024-02-21T01:44:20;5.28;86.55
65598;SHT31;52267;51.984;20.956;2024-02-21T01:46:47;5.29;86.57
65598;SHT31;52267;51.984;20.956;2024-02-21T01:49:14;5.29;86.69
65598;SHT31;52267;51.984;20.956;2024-02-21T01:51:41;5.28;86.72
65598;SHT31;52267;51.984;20.956;2024-02-21T01:54:08;5.28;86.76
65598;SHT31;52267;51.984;20.956;2024-02-21T01:56:36;5.29;86.73
65598;SHT31;52267;51.984;20.956;2024-02-21T01:59:03;5.30;86.70
65598;SHT31;52267;51.984;20.956;2024-02-21T02:01:31;5.30;86.89
65598;SHT31;52267;51.984;20.956;2024-02-21T02:03:58;5.29;86.89
65598;SHT31;52267;51.984;20.956;2024-02-21T02:06:26;5.29;86.94
65598;SHT31;52267;51.984;20.956;2024-02-21T02:08:54;5.30;86.91
65598;SHT31;52267;51.984;20.956;2024-02-21T02:11:23;5.30;87.05
65598;SHT31;52267;51.984;20.956;2024-02-21T02:13:52;5.28;87.04
65598;SHT31;52267;51.984;20.956;2024-02-21T02:16:21;5.29;87.15
65598;SHT31;52267;51.984;20.956;2024-02-21T02:18:50;5.30;87.13
65598;SHT31;52267;51.984;20.956;2024-02-21T02:21:23;5.30;87.22
65598;SHT31;52267;51.984;20.956;2024-02-21T02:23:56;5.32;87.20
65598;SHT31;52267;51.984;20.956;2024-02-21T02:26:24;5.33;87.17
65598;SHT31;52267;51.984;20.956;2024-02-21T02:28:51;5.35;87.13
65598;SHT31;52267;51.984;20.956;2024-02-21T02:31:18;5.37;87.13
65598;SHT31;52267;51.984;20.956;2024-02-21T02:33:45;5.40;87.09
65598;SHT31;52267;51.984;20.956;2024-02-21T02:36:12;5.40;87.09
65598;SHT31;52267;51.984;20.956;2024-02-21T02:38:39;5.41;87.10
65598;SHT31;52267;51.984;20.956;2024-02-21T02:41:06;5.42;87.11
65598;SHT31;52267;51.984;20.956;2024-02-21T02:43:33;5.43;87.10
65598;SHT31;52267;51.984;20.956;2024-02-21T02:46:00;5.45;87.09
65598;SHT31;52267;51.984;20.956;2024-02-21T02:48:27;5.45;87.09
65598;SHT31;52267;51.984;20.956;2024-02-21T02:50:54;5.42;87.10
65598;SHT31;52267;51.984;20.956;2024-02-21T02:53:21;5.43;87.10
65598;SHT31;52267;51.984;20.956;2024-02-21T02:55:48;5.40;87.12
65598;SHT31;52267;51.984;20.956;2024-02-21T02:58:15;5.38;87.12
65598;SHT31;52267;51.984;20.956;2024-02-21T03:00:42;5.37;87.13
65598;SHT31;52267;51.984;20.956;2024-02-21T03:03:09;5.34;87.18
65598;SHT31;52267;51.984;20.956;2024-02-21T03:05:36;5.31;87.20
65598;SHT31;52267;51.984;20.956;2024-02-21T03:08:03;5.30;87.20
65598;SHT31;52267;51.984;20.956;2024-02-21T03:10:33;5.28;87.25
65598;SHT31;52267;51.984;20.956;2024-02-21T03:13:00;5.27;87.30
65598;SHT31;52267;51.984;20.956;2024-02-21T03:15:28;5.26;87.31
65598;SHT31;52267;51.984;20.956;2024-02-21T03:17:55;5.26;87.31
65598;SHT31;52267;51.984;20.956;2024-02-21T03:20:22;5.26;87.37
65598;SHT31;52267;51.984;20.956;2024-02-21T03:22:49;5.26;87.35
65598;SHT31;52267;51.984;20.956;2024-02-21T03:25:16;5.24;87.40
65598;SHT31;52267;51.984;20.956;2024-02-21T03:27:43;5.22;87.59
65598;SHT31;52267;51.984;20.956;2024-02-21T03:30:10;5.19;87.51
65598;SHT31;52267;51.984;20.956;2024-02-21T03:32:38;5.17;87.55
65598;SHT31;52267;51.984;20.956;2024-02-21T03:35:05;5.14;87.55
65598;SHT31;52267;51.984;20.956;2024-02-21T03:37:33;5.13;87.59
65598;SHT31;52267;51.984;20.956;2024-02-21T03:40:00;5.14;87.52
65598;SHT31;52267;51.984;20.956;2024-02-21T03:42:27;5.12;87.55
65598;SHT31;52267;51.984;20.956;2024-02-21T03:44:56;5.10;87.62
65598;SHT31;52267;51.984;20.956;2024-02-21T03:47:23;5.11;87.62
65598;SHT31;52267;51.984;20.956;2024-02-21T03:49:50;5.13;87.60
65598;SHT31;52267;51.984;20.956;2024-02-21T03:52:17;5.14;87.53
65598;SHT31;52267;51.984;20.956;2024-02-21T03:54:44;5.16;87.52
65598;SHT31;52267;51.984;20.956;2024-02-21T03:57:11;5.16;87.56
65598;SHT31;52267;51.984;20.956;2024-02-21T03:59:38;5.18;87.51
65598;SHT31;52267;51.984;20.956;2024-02-21T04:02:06;5.20;87.45
65598;SHT31;52267;51.984;20.956;2024-02-21T04:04:36;5.23;87.41
65598;SHT31;52267;51.984;20.956;2024-02-21T04:07:06;5.24;87.39
65598;SHT31;52267;51.984;20.956;2024-02-21T04:09:33;5.21;87.32
65598;SHT31;52267;51.984;20.956;2024-02-21T04:12:00;5.21;87.33
65598;SHT31;52267;51.984;20.956;2024-02-21T04:14:27;5.22;87.28
65598;SHT31;52267;51.984;20.956;2024-02-21T04:16:54;5.20;87.22
65598;SHT31;52267;51.984;20.956;2024-02-21T04:19:21;5.22;87.20
65598;SHT31;52267;51.984;20.956;2024-02-21T04:21:48;5.23;87.18
65598;SHT31;52267;51.984;20.956;2024-02-21T04:24:15;5.22;87.10
65598;SHT31;52267;51.984;20.956;2024-02-21T04:26:42;5.22;87.04
65598;SHT31;52267;51.984;20.956;2024-02-21T04:29:10;5.19;87.00
65598;SHT31;52267;51.984;20.956;2024-02-21T04:31:37;5.17;87.00
65598;SHT31;52267;51.984;20.956;2024-02-21T04:34:06;5.17;86.98
65598;SHT31;52267;51.984;20.956;2024-02-21T04:36:33;5.15;86.97
65598;SHT31;52267;51.984;20.956;2024-02-21T04:39:00;5.13;86.95
65598;SHT31;52267;51.984;20.956;2024-02-21T04:41:27;5.12;86.98
65598;SHT31;52267;51.984;20.956;2024-02-21T04:43:54;5.10;87.00
65598;SHT31;52267;51.984;20.956;2024-02-21T04:46:21;5.11;87.00
65598;SHT31;52267;51.984;20.956;2024-02-21T04:48:48;5.09;87.00
65598;SHT31;52267;51.984;20.956;2024-02-21T04:51:15;5.10;87.00
65598;SHT31;52267;51.984;20.956;2024-02-21T04:53:42;5.09;86.96
65598;SHT31;52267;51.984;20.956;2024-02-21T04:56:09;5.09;86.97
65598;SHT31;52267;51.984;20.956;2024-02-21T04:58:39;5.10;86.99
65598;SHT31;52267;51.984;20.956;2024-02-21T05:01:06;5.13;87.04
65598;SHT31;52267;51.984;20.956;2024-02-21T05:03:34;5.14;87.08
65598;SHT31;52267;51.984;20.956;2024-02-21T05:06:01;5.13;87.19
65598;SHT31;52267;51.984;20.956;2024-02-21T05:08:28;5.16;87.25
65598;SHT31;52267;51.984;20.956;2024-02-21T05:10:55;5.14;87.38
65598;SHT31;52267;51.984;20.956;2024-02-21T05:16:39;5.22;87.31
65598;SHT31;52267;51.984;20.956;2024-02-21T05:19:06;5.21;87.41
65598;SHT31;52267;51.984;20.956;2024-02-21T05:21:33;5.23;87.44
65598;SHT31;52267;51.984;20.956;2024-02-21T05:24:00;5.22;87.49
65598;SHT31;52267;51.984;20.956;2024-02-21T05:26:27;5.25;87.51
65598;SHT31;52267;51.984;20.956;2024-02-21T05:28:56;5.26;87.52
65598;SHT31;52267;51.984;20.956;2024-02-21T05:31:23;5.21;87.86
65598;SHT31;52267;51.984;20.956;2024-02-21T05:33:50;5.15;88.19
65598;SHT31;52267;51.984;20.956;2024-02-21T05:36:17;5.16;88.19
65598;SHT31;52267;51.984;20.956;2024-02-21T05:38:44;5.14;88.14
65598;SHT31;52267;51.984;20.956;2024-02-21T05:41:11;5.11;88.34
65598;SHT31;52267;51.984;20.956;2024-02-21T05:43:37;5.15;88.35
65598;SHT31;52267;51.984;20.956;2024-02-21T05:46:04;5.21;88.18
65598;SHT31;52267;51.984;20.956;2024-02-21T05:48:31;5.22;88.14
65598;SHT31;52267;51.984;20.956;2024-02-21T05:50:58;5.23;88.20
65598;SHT31;52267;51.984;20.956;2024-02-21T05:53:29;5.25;88.31
65598;SHT31;52267;51.984;20.956;2024-02-21T05:55:56;5.30;88.01
65598;SHT31;52267;51.984;20.956;2024-02-21T05:58:23;5.31;88.01
65598;SHT31;52267;51.984;20.956;2024-02-21T06:00:50;5.35;88.08
65598;SHT31;52267;51.984;20.956;2024-02-21T06:03:17;5.38;87.97
65598;SHT31;52267;51.984;20.956;2024-02-21T06:05:44;5.39;88.00
65598;SHT31;52267;51.984;20.956;2024-02-21T06:08:11;5.42;87.96
65598;SHT31;52267;51.984;20.956;2024-02-21T06:10:38;5.48;87.90
65598;SHT31;52267;51.984;20.956;2024-02-21T06:13:06;5.50;87.89
65598;SHT31;52267;51.984;20.956;2024-02-21T06:15:33;5.51;87.92
65598;SHT31;52267;51.984;20.956;2024-02-21T06:18:00;5.53;88.02
65598;SHT31;52267;51.984;20.956;2024-02-21T06:20:27;5.53;88.17
65598;SHT31;52267;51.984;20.956;2024-02-21T06:22:54;5.55;88.28
65598;SHT31;52267;51.984;20.956;2024-02-21T06:25:21;5.60;88.27
65598;SHT31;52267;51.984;20.956;2024-02-21T06:27:48;5.62;88.43
65598;SHT31;52267;51.984;20.956;2024-02-21T06:30:15;5.64;88.38
65598;SHT31;52267;51.984;20.956;2024-02-21T06:32:42;5.66;88.47
65598;SHT31;52267;51.984;20.956;2024-02-21T06:35:09;5.70;88.29
65598;SHT31;52267;51.984;20.956;2024-02-21T06:37:36;5.74;88.09
65598;SHT31;52267;51.984;20.956;2024-02-21T06:40:05;5.77;88.06
65598;SHT31;52267;51.984;20.956;2024-02-21T06:42:33;5.83;88.02
65598;SHT31;52267;51.984;20.956;2024-02-21T06:45:00;5.91;87.90
65598;SHT31;52267;51.984;20.956;2024-02-21T06:47:27;5.95;87.89
65598;SHT31;52267;51.984;20.956;2024-02-21T06:49:54;5.99;88.02
65598;SHT31;52267;51.984;20.956;2024-02-21T06:52:21;6.04;88.06
65598;SHT31;52267;51.984;20.956;2024-02-21T06:54:49;6.07;88.02
65598;SHT31;52267;51.984;20.956;2024-02-21T06:57:16;6.09;88.28
65598;SHT31;52267;51.984;20.956;2024-02-21T06:59:43;6.12;88.26
65598;SHT31;52267;51.984;20.956;2024-02-21T07:02:10;6.15;88.22
65598;SHT31;52267;51.984;20.956;2024-02-21T07:04:37;6.18;88.22
65598;SHT31;52267;51.984;20.956;2024-02-21T07:07:04;6.23;88.05
65598;SHT31;52267;51.984;20.956;2024-02-21T07:09:31;6.29;88.06
65598;SHT31;52267;51.984;20.956;2024-02-21T07:11:58;6.31;88.15
65598;SHT31;52267;51.984;20.956;2024-02-21T07:14:27;6.35;88.20
65598;SHT31;52267;51.984;20.956;2024-02-21T07:16:54;6.39;87.95
65598;SHT31;52267;51.984;20.956;2024-02-21T07:19:23;6.43;88.00
65598;SHT31;52267;51.984;20.956;2024-02-21T07:21:50;6.48;87.85
65598;SHT31;52267;51.984;20.956;2024-02-21T07:24:17;6.50;87.81
65598;SHT31;52267;51.984;20.956;2024-02-21T07:26:45;6.51;87.78
65598;SHT31;52267;51.984;20.956;2024-02-21T07:29:12;6.52;87.73
65598;SHT31;52267;51.984;20.956;2024-02-21T07:31:42;6.53;87.71
65598;SHT31;52267;51.984;20.956;2024-02-21T07:34:10;6.52;87.77
65598;SHT31;52267;51.984;20.956;2024-02-21T07:36:38;6.53;87.68
65598;SHT31;52267;51.984;20.956;2024-02-21T07:39:05;6.56;87.53
65598;SHT31;52267;51.984;20.956;2024-02-21T07:41:32;6.59;87.46
65598;SHT31;52267;51.984;20.956;2024-02-21T07:44:01;6.61;87.42
65598;SHT31;52267;51.984;20.956;2024-02-21T07:46:28;6.61;87.39
65598;SHT31;52267;51.984;20.956;2024-02-21T07:48:55;6.63;87.35
65598;SHT31;52267;51.984;20.956;2024-02-21T07:51:22;6.66;87.30
65598;SHT31;52267;51.984;20.956;2024-02-21T07:53:49;6.67;87.20
65598;SHT31;52267;51.984;20.956;2024-02-21T07:56:16;6.70;87.18
65598;SHT31;52267;51.984;20.956;2024-02-21T07:58:43;6.72;87.10
65598;SHT31;52267;51.984;20.956;2024-02-21T08:01:10;6.74;87.12
65598;SHT31;52267;51.984;20.956;2024-02-21T08:03:37;6.77;87.01
65598;SHT31;52267;51.984;20.956;2024-02-21T08:06:04;6.81;87.00
65598;SHT31;52267;51.984;20.956;2024-02-21T08:08:32;6.86;86.92
65598;SHT31;52267;51.984;20.956;2024-02-21T08:10:58;6.88;86.88
65598;SHT31;52267;51.984;20.956;2024-02-21T08:13:26;6.92;86.88
65598;SHT31;52267;51.984;20.956;2024-02-21T08:15:55;7.00;86.82
65598;SHT31;52267;51.984;20.956;2024-02-21T08:21:10;7.11;86.70
65598;SHT31;52267;51.984;20.956;2024-02-21T08:23:37;7.13;86.63
65598;SHT31;52267;51.984;20.956;2024-02-21T08:26:05;7.18;86.59
65598;SHT31;52267;51.984;20.956;2024-02-21T08:28:32;7.19;86.45
65598;SHT31;52267;51.984;20.956;2024-02-21T08:30:59;7.22;86.39
65598;SHT31;52267;51.984;20.956;2024-02-21T08:33:26;7.26;86.27
65598;SHT31;52267;51.984;20.956;2024-02-21T08:35:54;7.28;86.16
65598;SHT31;52267;51.984;20.956;2024-02-21T08:38:21;7.31;86.07
65598;SHT31;52267;51.984;20.956;2024-02-21T08:40:48;7.36;86.01
65598;SHT31;52267;51.984;20.956;2024-02-21T08:43:15;7.41;85.88
65598;SHT31;52267;51.984;20.956;2024-02-21T08:45:42;7.44;85.76
65598;SHT31;52267;51.984;20.956;2024-02-21T08:48:09;7.44;85.76
65598;SHT31;52267;51.984;20.956;2024-02-21T08:50:37;7.47;85.85
65598;SHT31;52267;51.984;20.956;2024-02-21T08:53:04;7.52;85.81
65598;SHT31;52267;51.984;20.956;2024-02-21T08:55:31;7.56;85.69
65598;SHT31;52267;51.984;20.956;2024-02-21T08:57:59;7.57;85.57
65598;SHT31;52267;51.984;20.956;2024-02-21T09:00:27;7.67;85.64
65598;SHT31;52267;51.984;20.956;2024-02-21T09:02:55;7.72;85.53
65598;SHT31;52267;51.984;20.956;2024-02-21T09:05:25;7.75;85.44
65598;SHT31;52267;51.984;20.956;2024-02-21T09:07:52;7.81;85.43
65598;SHT31;52267;51.984;20.956;2024-02-21T09:10:19;7.88;85.32
65598;SHT31;52267;51.984;20.956;2024-02-21T09:12:46;7.93;85.29
65598;SHT31;52267;51.984;20.956;2024-02-21T09:15:13;8.01;85.23
65598;SHT31;52267;51.984;20.956;2024-02-21T09:17:40;8.06;85.14
65598;SHT31;52267;51.984;20.956;2024-02-21T09:20:08;8.13;85.01
65598;SHT31;52267;51.984;20.956;2024-02-21T09:22:38;8.17;84.77
65598;SHT31;52267;51.984;20.956;2024-02-21T09:25:06;8.19;84.47
65598;SHT31;52267;51.984;20.956;2024-02-21T09:27:34;8.22;84.43
65598;SHT31;52267;51.984;20.956;2024-02-21T09:30:01;8.24;84.33
65598;SHT31;52267;51.984;20.956;2024-02-21T09:32:29;8.24;84.03
65598;SHT31;52267;51.984;20.956;2024-02-21T09:34:56;8.28;84.06
65598;SHT31;52267;51.984;20.956;2024-02-21T09:37:23;8.31;84.08
65598;SHT31;52267;51.984;20.956;2024-02-21T09:39:50;8.30;84.03
65598;SHT31;52267;51.984;20.956;2024-02-21T09:42:20;8.28;83.86
65598;SHT31;52267;51.984;20.956;2024-02-21T09:44:51;8.26;83.72
65598;SHT31;52267;51.984;20.956;2024-02-21T09:47:19;8.24;83.65
65598;SHT31;52267;51.984;20.956;2024-02-21T09:49:51;8.23;83.64
65598;SHT31;52267;51.984;20.956;2024-02-21T09:52:19;8.25;83.72
65598;SHT31;52267;51.984;20.956;2024-02-21T09:54:47;8.28;83.65
65598;SHT31;52267;51.984;20.956;2024-02-21T09:57:15;8.30;83.58
65598;SHT31;52267;51.984;20.956;2024-02-21T09:59:42;8.31;83.36
65598;SHT31;52267;51.984;20.956;2024-02-21T10:02:12;8.36;83.40
65598;SHT31;52267;51.984;20.956;2024-02-21T10:04:40;8.40;83.28
65598;SHT31;52267;51.984;20.956;2024-02-21T10:07:07;8.48;83.25
65598;SHT31;52267;51.984;20.956;2024-02-21T10:09:35;8.53;83.21
65598;SHT31;52267;51.984;20.956;2024-02-21T10:12:09;8.59;83.16
65598;SHT31;52267;51.984;20.956;2024-02-21T10:14:37;8.59;83.02
65598;SHT31;52267;51.984;20.956;2024-02-21T10:17:05;8.59;82.99
65598;SHT31;52267;51.984;20.956;2024-02-21T10:19:35;8.60;82.95
65598;SHT31;52267;51.984;20.956;2024-02-21T10:22:07;8.60;82.95
65598;SHT31;52267;51.984;20.956;2024-02-21T10:24:35;8.61;82.82
65598;SHT31;52267;51.984;20.956;2024-02-21T10:27:09;8.63;82.89
65598;SHT31;52267;51.984;20.956;2024-02-21T10:29:39;8.63;82.79
65598;SHT31;52267;51.984;20.956;2024-02-21T10:32:11;8.64;82.76
65598;SHT31;52267;51.984;20.956;2024-02-21T10:34:41;8.66;82.85
65598;SHT31;52267;51.984;20.956;2024-02-21T10:37:09;8.64;82.73
65598;SHT31;52267;51.984;20.956;2024-02-21T10:39:40;8.60;82.76
65598;SHT31;52267;51.984;20.956;2024-02-21T10:42:10;8.56;82.78
65598;SHT31;52267;51.984;20.956;2024-02-21T10:44:38;8.55;82.90
65598;SHT31;52267;51.984;20.956;2024-02-21T10:47:10;8.53;82.98
65598;SHT31;52267;51.984;20.956;2024-02-21T10:49:44;8.48;83.03
65598;SHT31;52267;51.984;20.956;2024-02-21T10:55:03;8.45;83.16
65598;SHT31;52267;51.984;20.956;2024-02-21T10:57:37;8.47;83.10
65598;SHT31;52267;51.984;20.956;2024-02-21T11:00:04;8.51;83.05
65598;SHT31;52267;51.984;20.956;2024-02-21T11:02:34;8.57;83.06
65598;SHT31;52267;51.984;20.956;2024-02-21T11:05:02;8.64;83.08
65598;SHT31;52267;51.984;20.956;2024-02-21T11:07:31;8.66;83.01
65598;SHT31;52267;51.984;20.956;2024-02-21T11:09:59;8.69;83.00
65598;SHT31;52267;51.984;20.956;2024-02-21T11:12:26;8.69;82.90
65598;SHT31;52267;51.984;20.956;2024-02-21T11:15:03;8.68;82.84
65598;SHT31;52267;51.984;20.956;2024-02-21T11:17:33;8.67;82.79
65598;SHT31;52267;51.984;20.956;2024-02-21T11:20:10;8.67;82.78
65598;SHT31;52267;51.984;20.956;2024-02-21T11:22:43;8.63;82.74
65598;SHT31;52267;51.984;20.956;2024-02-21T11:25:10;8.61;82.79
65598;SHT31;52267;51.984;20.956;2024-02-21T11:27:38;8.56;82.74
65598;SHT31;52267;51.984;20.956;2024-02-21T11:30:05;8.55;82.99
65598;SHT31;52267;51.984;20.956;2024-02-21T11:32:33;8.55;83.07
65598;SHT31;52267;51.984;20.956;2024-02-21T11:35:00;8.55;83.11
65598;SHT31;52267;51.984;20.956;2024-02-21T11:37:33;8.58;83.18
65598;SHT31;52267;51.984;20.956;2024-02-21T11:40:05;8.60;83.21
65598;SHT31;52267;51.984;20.956;2024-02-21T11:42:36;8.56;83.46
65598;SHT31;52267;51.984;20.956;2024-02-21T11:45:03;8.52;83.53
65598;SHT31;52267;51.984;20.956;2024-02-21T11:47:31;8.52;83.57
65598;SHT31;52267;51.984;20.956;2024-02-21T11:49:58;8.51;83.73
65598;SHT31;52267;51.984;20.956;2024-02-21T11:52:25;8.49;83.79
65598;SHT31;52267;51.984;20.956;2024-02-21T11:54:54;8.48;83.90
65598;SHT31;52267;51.984;20.956;2024-02-21T11:57:24;8.47;84.02
65598;SHT31;52267;51.984;20.956;2024-02-21T11:59:51;8.41;84.21
65598;SHT31;52267;51.984;20.956;2024-02-21T12:02:21;8.38;84.21
65598;SHT31;52267;51.984;20.956;2024-02-21T12:04:48;8.37;84.27
65598;SHT31;52267;51.984;20.956;2024-02-21T12:07:15;8.33;84.45
65598;SHT31;52267;51.984;20.956;2024-02-21T12:09:42;8.30;84.79
65598;SHT31;52267;51.984;20.956;2024-02-21T12:12:09;8.26;85.04
65598;SHT31;52267;51.984;20.956;2024-02-21T12:14:36;8.25;85.17
65598;SHT31;52267;51.984;20.956;2024-02-21T12:17:04;8.29;85.09
65598;SHT31;52267;51.984;20.956;2024-02-21T12:19:32;8.32;84.87
65598;SHT31;52267;51.984;20.956;2024-02-21T12:22:00;8.30;85.03
65598;SHT31;52267;51.984;20.956;2024-02-21T12:24:28;8.30;85.09
65598;SHT31;52267;51.984;20.956;2024-02-21T12:26:55;8.30;85.04
65598;SHT31;52267;51.984;20.956;2024-02-21T12:29:25;8.27;85.06
65598;SHT31;52267;51.984;20.956;2024-02-21T12:31:52;8.27;85.11
65598;SHT31;52267;51.984;20.956;2024-02-21T12:34:21;8.23;85.20
65598;SHT31;52267;51.984;20.956;2024-02-21T12:36:51;8.21;85.31
65598;SHT31;52267;51.984;20.956;2024-02-21T12:39:18;8.23;85.38
65598;SHT31;52267;51.984;20.956;2024-02-21T12:41:45;8.20;85.59
65598;SHT31;52267;51.984;20.956;2024-02-21T12:44:12;8.19;85.46
65598;SHT31;52267;51.984;20.956;2024-02-21T12:46:40;8.20;85.50
65598;SHT31;52267;51.984;20.956;2024-02-21T12:49:07;8.17;85.62
65598;SHT31;52267;51.984;20.956;2024-02-21T12:51:34;8.16;85.60
65598;SHT31;52267;51.984;20.956;2024-02-21T12:54:02;8.18;85.76
65598;SHT31;52267;51.984;20.956;2024-02-21T12:56:32;8.20;85.69
65598;SHT31;52267;51.984;20.956;2024-02-21T12:58:59;8.23;85.68
65598;SHT31;52267;51.984;20.956;2024-02-21T13:01:29;8.23;85.77
65598;SHT31;52267;51.984;20.956;2024-02-21T13:03:56;8.19;86.09
65598;SHT31;52267;51.984;20.956;2024-02-21T13:06:26;8.18;86.02
65598;SHT31;52267;51.984;20.956;2024-02-21T13:08:54;8.17;86.01
65598;SHT31;52267;51.984;20.956;2024-02-21T13:11:21;8.18;86.12
65598;SHT31;52267;51.984;20.956;2024-02-21T13:13:48;8.20;86.14
65598;SHT31;52267;51.984;20.956;2024-02-21T13:16:15;8.20;86.21
65598;SHT31;52267;51.984;20.956;2024-02-21T13:18:42;8.18;86.33
65598;SHT31;52267;51.984;20.956;2024-02-21T13:21:09;8.13;86.62
65598;SHT31;52267;51.984;20.956;2024-02-21T13:23:37;8.11;86.67
65598;SHT31;52267;51.984;20.956;2024-02-21T13:26:04;8.12;86.58
65598;SHT31;52267;51.984;20.956;2024-02-21T13:28:31;8.16;86.50
65598;SHT31;52267;51.984;20.956;2024-02-21T13:30:59;8.12;86.79
65598;SHT31;52267;51.984;20.956;2024-02-21T13:33:26;8.13;86.92
65598;SHT31;52267;51.984;20.956;2024-02-21T13:35:55;8.12;86.85
65598;SHT31;52267;51.984;20.956;2024-02-21T13:38:22;8.10;86.92
65598;SHT31;52267;51.984;20.956;2024-02-21T13:40:50;8.06;87.40
65598;SHT31;52267;51.984;20.956;2024-02-21T13:43:18;8.06;87.19
65598;SHT31;52267;51.984;20.956;2024-02-21T13:45:58;8.07;87.25
65598;SHT31;52267;51.984;20.956;2024-02-21T13:48:36;8.06;87.30
65598;SHT31;52267;51.984;20.956;2024-02-21T13:51:03;8.05;87.26
65598;SHT31;52267;51.984;20.956;2024-02-21T13:53:31;8.04;87.31
65598;SHT31;52267;51.984;20.956;2024-02-21T13:55:58;7.97;87.80
65598;SHT31;52267;51.984;20.956;2024-02-21T13:58:25;7.97;87.63
65598;SHT31;52267;51.984;20.956;2024-02-21T14:00:52;7.96;87.64
65598;SHT31;52267;51.984;20.956;2024-02-21T14:03:20;7.93;87.91
65598;SHT31;52267;51.984;20.956;2024-02-21T14:05:47;7.89;88.05
65598;SHT31;52267;51.984;20.956;2024-02-21T14:08:17;7.89;88.04
65598;SHT31;52267;51.984;20.956;2024-02-21T14:10:44;7.89;88.00
65598;SHT31;52267;51.984;20.956;2024-02-21T14:13:11;7.90;87.98
65598;SHT31;52267;51.984;20.956;2024-02-21T14:15:39;7.90;88.02
65598;SHT31;52267;51.984;20.956;2024-02-21T14:18:12;7.90;88.01
65598;SHT31;52267;51.984;20.956;2024-02-21T14:20:39;7.85;88.20
65598;SHT31;52267;51.984;20.956;2024-02-21T14:23:06;7.84;88.06
65598;SHT31;52267;51.984;20.956;2024-02-21T14:25:33;7.83;88.21
65598;SHT31;52267;51.984;20.956;2024-02-21T14:28:00;7.82;88.16
65598;SHT31;52267;51.984;20.956;2024-02-21T14:30:27;7.83;88.10
65598;SHT31;52267;51.984;20.956;2024-02-21T14:32:54;7.85;87.96
65598;SHT31;52267;51.984;20.956;2024-02-21T14:35:21;7.87;87.81
65598;SHT31;52267;51.984;20.956;2024-02-21T14:37:51;7.88;87.78
65598;SHT31;52267;51.984;20.956;2024-02-21T14:40:19;7.89;87.79
65598;SHT31;52267;51.984;20.956;2024-02-21T14:42:47;7.86;87.97
65598;SHT31;52267;51.984;20.956;2024-02-21T14:45:14;7.84;87.99
65598;SHT31;52267;51.984;20.956;2024-02-21T14:47:41;7.85;87.88
65598;SHT31;52267;51.984;20.956;2024-02-21T14:50:08;7.85;87.96
65598;SHT31;52267;51.984;20.956;2024-02-21T14:52:36;7.87;87.83
65598;SHT31;52267;51.984;20.956;2024-02-21T14:55:03;7.88;87.93
65598;SHT31;52267;51.984;20.956;2024-02-21T14:57:31;7.89;87.94
65598;SHT31;52267;51.984;20.956;2024-02-21T14:59:58;7.90;87.81
65598;SHT31;52267;51.984;20.956;2024-02-21T15:02:25;7.86;87.86
65598;SHT31;52267;51.984;20.956;2024-02-21T15:04:54;7.86;87.90
65598;SHT31;52267;51.984;20.956;2024-02-21T15:07:21;7.87;87.76
65598;SHT31;52267;51.984;20.956;2024-02-21T15:09:50;7.86;87.94
65598;SHT31;52267;51.984;20.956;2024-02-21T15:12:18;7.85;87.89
65598;SHT31;52267;51.984;20.956;2024-02-21T15:14:45;7.84;87.82
65598;SHT31;52267;51.984;20.956;2024-02-21T15:17:12;7.84;87.83
65598;SHT31;52267;51.984;20.956;2024-02-21T15:19:40;7.81;87.96
65598;SHT31;52267;51.984;20.956;2024-02-21T15:22:10;7.81;87.88
65598;SHT31;52267;51.984;20.956;2024-02-21T15:24:40;7.81;87.78
65598;SHT31;52267;51.984;20.956;2024-02-21T15:27:08;7.80;87.70
65598;SHT31;52267;51.984;20.956;2024-02-21T15:29:37;7.81;87.67
65598;SHT31;52267;51.984;20.956;2024-02-21T15:32:04;7.80;87.69
65598;SHT31;52267;51.984;20.956;2024-02-21T15:34:32;7.79;87.77
65598;SHT31;52267;51.984;20.956;2024-02-21T15:36:59;7.79;87.74
65598;SHT31;52267;51.984;20.956;2024-02-21T15:39:26;7.80;87.64
65598;SHT31;52267;51.984;20.956;2024-02-21T15:41:56;7.77;87.75